sensor_id;sensor_type;location;lat;lon;timestamp;P1;durP1;ratioP1;P2;durP2;ratioP2
20828;SDS011;10575;50.124;8.582;2023-03-04T00:01:05;26.30;;;10.98;;
20828;SDS011;10575;50.124;8.582;2023-03-04T00:03:31;26.45;;;11.40;;
20828;SDS011;10575;50.124;8.582;2023-03-04T00:05:56;24.30;;;10.93;;
20828;SDS011;10575;50.124;8.582;2023-03-04T00:08:22;23.40;;;11.38;;
20828;SDS011;10575;50.124;8.582;2023-03-04T00:10:47;27.70;;;11.35;;
20828;SDS011;10575;50.124;8.582;2023-03-04T00:13:13;30.23;;;11.93;;
20828;SDS011;10575;50.124;8.582;2023-03-04T00:15:39;28.27;;;12.07;;
20828;SDS011;10575;50.124;8.582;2023-03-04T00:18:04;27.70;;;11.65;;
20828;SDS011;10575;50.124;8.582;2023-03-04T00:20:30;27.30;;;11.57;;
20828;SDS011;10575;50.124;8.582;2023-03-04T00:22:55;29.10;;;12.15;;
20828;SDS011;10575;50.124;8.582;2023-03-04T00:25:21;27.98;;;11.88;;
20828;SDS011;10575;50.124;8.582;2023-03-04T00:27:46;28.42;;;12.95;;
20828;SDS011;10575;50.124;8.582;2023-03-04T00:30:12;28.67;;;11.50;;
20828;SDS011;10575;50.124;8.582;2023-03-04T00:32:37;32.35;;;13.40;;
20828;SDS011;10575;50.124;8.582;2023-03-04T00:35:04;34.20;;;13.82;;
20828;SDS011;10575;50.124;8.582;2023-03-04T00:37:30;38.92;;;14.60;;
20828;SDS011;10575;50.124;8.582;2023-03-04T00:39:56;38.70;;;14.95;;
20828;SDS011;10575;50.124;8.582;2023-03-04T00:42:21;36.55;;;15.77;;
20828;SDS011;10575;50.124;8.582;2023-03-04T00:44:47;37.85;;;13.63;;
20828;SDS011;10575;50.124;8.582;2023-03-04T00:47:13;36.42;;;14.73;;
20828;SDS011;10575;50.124;8.582;2023-03-04T00:49:39;34.95;;;14.70;;
20828;SDS011;10575;50.124;8.582;2023-03-04T00:52:04;39.30;;;15.52;;
20828;SDS011;10575;50.124;8.582;2023-03-04T00:54:30;34.55;;;13.55;;
20828;SDS011;10575;50.124;8.582;2023-03-04T00:56:55;38.63;;;13.30;;
20828;SDS011;10575;50.124;8.582;2023-03-04T00:59:21;33.33;;;14.00;;
20828;SDS011;10575;50.124;8.582;2023-03-04T01:01:46;36.28;;;14.75;;
20828;SDS011;10575;50.124;8.582;2023-03-04T01:04:12;40.33;;;14.43;;
20828;SDS011;10575;50.124;8.582;2023-03-04T01:06:38;44.60;;;16.95;;
20828;SDS011;10575;50.124;8.582;2023-03-04T01:09:03;51.97;;;17.65;;
20828;SDS011;10575;50.124;8.582;2023-03-04T01:11:29;49.47;;;17.63;;
20828;SDS011;10575;50.124;8.582;2023-03-04T01:13:54;51.05;;;17.95;;
20828;SDS011;10575;50.124;8.582;2023-03-04T01:16:20;48.45;;;17.60;;
20828;SDS011;10575;50.124;8.582;2023-03-04T01:18:45;45.67;;;17.08;;
20828;SDS011;10575;50.124;8.582;2023-03-04T01:21:11;46.15;;;17.58;;
20828;SDS011;10575;50.124;8.582;2023-03-04T01:23:37;53.15;;;19.70;;
20828;SDS011;10575;50.124;8.582;2023-03-04T01:26:02;51.22;;;18.35;;
20828;SDS011;10575;50.124;8.582;2023-03-04T01:28:28;46.63;;;18.00;;
20828;SDS011;10575;50.124;8.582;2023-03-04T01:30:54;48.50;;;17.75;;
20828;SDS011;10575;50.124;8.582;2023-03-04T01:33:19;46.13;;;16.98;;
20828;SDS011;10575;50.124;8.582;2023-03-04T01:35:45;38.72;;;15.93;;
20828;SDS011;10575;50.124;8.582;2023-03-04T01:38:10;40.50;;;16.45;;
20828;SDS011;10575;50.124;8.582;2023-03-04T01:40:36;48.00;;;18.17;;
20828;SDS011;10575;50.124;8.582;2023-03-04T01:43:02;47.33;;;16.95;;
20828;SDS011;10575;50.124;8.582;2023-03-04T01:45:28;44.20;;;17.98;;
20828;SDS011;10575;50.124;8.582;2023-03-04T01:47:56;44.67;;;17.48;;
20828;SDS011;10575;50.124;8.582;2023-03-04T01:52:57;47.38;;;17.30;;
20828;SDS011;10575;50.124;8.582;2023-03-04T01:55:23;55.05;;;19.67;;
20828;SDS011;10575;50.124;8.582;2023-03-04T01:57:50;45.88;;;17.58;;
20828;SDS011;10575;50.124;8.582;2023-03-04T02:00:17;49.92;;;17.92;;
20828;SDS011;10575;50.124;8.582;2023-03-04T02:02:47;45.10;;;16.58;;
20828;SDS011;10575;50.124;8.582;2023-03-04T02:05:14;44.40;;;17.27;;
20828;SDS011;10575;50.124;8.582;2023-03-04T02:07:40;48.65;;;18.02;;
20828;SDS011;10575;50.124;8.582;2023-03-04T02:10:06;51.83;;;18.50;;
20828;SDS011;10575;50.124;8.582;2023-03-04T02:12:32;49.60;;;18.17;;
20828;SDS011;10575;50.124;8.582;2023-03-04T02:14:58;47.55;;;18.00;;
20828;SDS011;10575;50.124;8.582;2023-03-04T02:17:24;50.97;;;17.42;;
20828;SDS011;10575;50.124;8.582;2023-03-04T02:22:23;52.38;;;18.75;;
20828;SDS011;10575;50.124;8.582;2023-03-04T02:24:51;43.42;;;16.85;;
20828;SDS011;10575;50.124;8.582;2023-03-04T02:27:22;45.08;;;16.73;;
20828;SDS011;10575;50.124;8.582;2023-03-04T02:29:47;46.50;;;15.88;;
20828;SDS011;10575;50.124;8.582;2023-03-04T02:32:13;41.80;;;16.65;;
20828;SDS011;10575;50.124;8.582;2023-03-04T02:34:44;43.05;;;17.15;;
20828;SDS011;10575;50.124;8.582;2023-03-04T02:37:12;53.97;;;17.67;;
20828;SDS011;10575;50.124;8.582;2023-03-04T02:39:39;49.70;;;16.95;;
20828;SDS011;10575;50.124;8.582;2023-03-04T02:42:07;46.60;;;17.65;;
20828;SDS011;10575;50.124;8.582;2023-03-04T02:44:33;47.28;;;17.38;;
20828;SDS011;10575;50.124;8.582;2023-03-04T02:47:02;55.28;;;19.13;;
20828;SDS011;10575;50.124;8.582;2023-03-04T02:49:30;51.92;;;19.20;;
20828;SDS011;10575;50.124;8.582;2023-03-04T02:51:59;55.95;;;20.48;;
20828;SDS011;10575;50.124;8.582;2023-03-04T02:54:26;45.90;;;18.25;;
20828;SDS011;10575;50.124;8.582;2023-03-04T02:56:53;51.33;;;17.70;;
20828;SDS011;10575;50.124;8.582;2023-03-04T02:59:21;53.53;;;19.10;;
20828;SDS011;10575;50.124;8.582;2023-03-04T03:01:47;60.80;;;19.23;;
20828;SDS011;10575;50.124;8.582;2023-03-04T03:04:13;53.72;;;19.75;;
20828;SDS011;10575;50.124;8.582;2023-03-04T03:06:40;54.38;;;18.83;;
20828;SDS011;10575;50.124;8.582;2023-03-04T03:09:05;56.65;;;18.90;;
20828;SDS011;10575;50.124;8.582;2023-03-04T03:11:32;60.72;;;21.42;;
20828;SDS011;10575;50.124;8.582;2023-03-04T03:13:58;59.63;;;19.48;;
20828;SDS011;10575;50.124;8.582;2023-03-04T03:16:23;54.00;;;20.58;;
20828;SDS011;10575;50.124;8.582;2023-03-04T03:18:49;59.33;;;20.30;;
20828;SDS011;10575;50.124;8.582;2023-03-04T03:21:15;61.92;;;20.55;;
20828;SDS011;10575;50.124;8.582;2023-03-04T03:23:41;58.75;;;20.67;;
20828;SDS011;10575;50.124;8.582;2023-03-04T03:26:07;57.17;;;19.80;;
20828;SDS011;10575;50.124;8.582;2023-03-04T03:28:33;60.47;;;20.83;;
20828;SDS011;10575;50.124;8.582;2023-03-04T03:30:59;56.35;;;21.00;;
20828;SDS011;10575;50.124;8.582;2023-03-04T03:33:24;58.10;;;20.65;;
20828;SDS011;10575;50.124;8.582;2023-03-04T03:35:50;59.00;;;21.35;;
20828;SDS011;10575;50.124;8.582;2023-03-04T03:38:16;60.00;;;20.17;;
20828;SDS011;10575;50.124;8.582;2023-03-04T03:40:41;52.53;;;18.48;;
20828;SDS011;10575;50.124;8.582;2023-03-04T03:43:07;60.90;;;20.52;;
20828;SDS011;10575;50.124;8.582;2023-03-04T03:45:32;55.25;;;19.30;;
20828;SDS011;10575;50.124;8.582;2023-03-04T03:47:58;59.42;;;20.52;;
20828;SDS011;10575;50.124;8.582;2023-03-04T03:50:23;53.10;;;19.70;;
20828;SDS011;10575;50.124;8.582;2023-03-04T03:52:49;60.70;;;20.05;;
20828;SDS011;10575;50.124;8.582;2023-03-04T03:55:15;52.03;;;18.55;;
20828;SDS011;10575;50.124;8.582;2023-03-04T03:57:40;48.38;;;18.13;;
20828;SDS011;10575;50.124;8.582;2023-03-04T04:00:06;59.13;;;20.25;;
20828;SDS011;10575;50.124;8.582;2023-03-04T04:02:33;56.65;;;20.40;;
20828;SDS011;10575;50.124;8.582;2023-03-04T04:04:58;62.13;;;19.70;;
20828;SDS011;10575;50.124;8.582;2023-03-04T04:07:24;57.65;;;19.92;;
20828;SDS011;10575;50.124;8.582;2023-03-04T04:09:49;61.17;;;20.77;;
20828;SDS011;10575;50.124;8.582;2023-03-04T04:12:15;53.85;;;19.42;;
20828;SDS011;10575;50.124;8.582;2023-03-04T04:14:41;57.55;;;20.50;;
20828;SDS011;10575;50.124;8.582;2023-03-04T04:17:07;58.00;;;20.30;;
20828;SDS011;10575;50.124;8.582;2023-03-04T04:19:33;56.03;;;20.05;;
20828;SDS011;10575;50.124;8.582;2023-03-04T04:21:59;51.28;;;17.85;;
20828;SDS011;10575;50.124;8.582;2023-03-04T04:24:25;50.60;;;18.85;;
20828;SDS011;10575;50.124;8.582;2023-03-04T04:26:50;53.63;;;20.13;;
20828;SDS011;10575;50.124;8.582;2023-03-04T04:29:16;53.10;;;19.45;;
20828;SDS011;10575;50.124;8.582;2023-03-04T04:31:41;52.15;;;18.98;;
20828;SDS011;10575;50.124;8.582;2023-03-04T04:34:07;51.55;;;19.52;;
20828;SDS011;10575;50.124;8.582;2023-03-04T04:36:33;54.65;;;19.65;;
20828;SDS011;10575;50.124;8.582;2023-03-04T04:38:59;56.35;;;22.35;;
20828;SDS011;10575;50.124;8.582;2023-03-04T04:41:29;65.43;;;21.52;;
20828;SDS011;10575;50.124;8.582;2023-03-04T04:43:58;53.55;;;18.90;;
20828;SDS011;10575;50.124;8.582;2023-03-04T04:46:24;49.65;;;17.40;;
20828;SDS011;10575;50.124;8.582;2023-03-04T04:48:50;51.08;;;18.83;;
20828;SDS011;10575;50.124;8.582;2023-03-04T04:51:16;51.75;;;18.35;;
20828;SDS011;10575;50.124;8.582;2023-03-04T04:53:41;48.30;;;18.50;;
20828;SDS011;10575;50.124;8.582;2023-03-04T04:56:09;48.03;;;18.52;;
20828;SDS011;10575;50.124;8.582;2023-03-04T04:58:42;44.92;;;17.33;;
20828;SDS011;10575;50.124;8.582;2023-03-04T05:01:08;46.35;;;17.45;;
20828;SDS011;10575;50.124;8.582;2023-03-04T05:03:34;49.28;;;18.17;;
20828;SDS011;10575;50.124;8.582;2023-03-04T05:06:01;54.63;;;18.13;;
20828;SDS011;10575;50.124;8.582;2023-03-04T05:08:27;46.65;;;17.20;;
20828;SDS011;10575;50.124;8.582;2023-03-04T05:10:53;54.25;;;18.98;;
20828;SDS011;10575;50.124;8.582;2023-03-04T05:13:19;45.85;;;16.95;;
20828;SDS011;10575;50.124;8.582;2023-03-04T05:15:45;49.53;;;17.48;;
20828;SDS011;10575;50.124;8.582;2023-03-04T05:18:10;48.70;;;17.30;;
20828;SDS011;10575;50.124;8.582;2023-03-04T05:20:36;60.20;;;20.63;;
20828;SDS011;10575;50.124;8.582;2023-03-04T05:23:02;53.75;;;18.42;;
20828;SDS011;10575;50.124;8.582;2023-03-04T05:25:27;53.70;;;18.60;;
20828;SDS011;10575;50.124;8.582;2023-03-04T05:27:53;57.58;;;20.20;;
20828;SDS011;10575;50.124;8.582;2023-03-04T05:30:18;50.03;;;18.63;;
20828;SDS011;10575;50.124;8.582;2023-03-04T05:32:44;50.53;;;19.23;;
20828;SDS011;10575;50.124;8.582;2023-03-04T05:35:09;52.15;;;19.50;;
20828;SDS011;10575;50.124;8.582;2023-03-04T05:37:35;51.58;;;19.17;;
20828;SDS011;10575;50.124;8.582;2023-03-04T05:40:00;52.00;;;19.95;;
20828;SDS011;10575;50.124;8.582;2023-03-04T05:42:26;53.03;;;19.77;;
20828;SDS011;10575;50.124;8.582;2023-03-04T05:44:51;50.55;;;19.38;;
20828;SDS011;10575;50.124;8.582;2023-03-04T05:47:17;58.47;;;19.85;;
20828;SDS011;10575;50.124;8.582;2023-03-04T05:49:43;54.20;;;20.95;;
20828;SDS011;10575;50.124;8.582;2023-03-04T05:52:08;57.58;;;21.67;;
20828;SDS011;10575;50.124;8.582;2023-03-04T05:54:34;58.80;;;21.73;;
20828;SDS011;10575;50.124;8.582;2023-03-04T05:57:00;60.53;;;20.45;;
20828;SDS011;10575;50.124;8.582;2023-03-04T05:59:26;59.67;;;20.63;;
20828;SDS011;10575;50.124;8.582;2023-03-04T06:01:52;61.47;;;20.75;;
20828;SDS011;10575;50.124;8.582;2023-03-04T06:04:18;63.38;;;22.30;;
20828;SDS011;10575;50.124;8.582;2023-03-04T06:06:43;62.63;;;21.15;;
20828;SDS011;10575;50.124;8.582;2023-03-04T06:09:11;59.97;;;22.33;;
20828;SDS011;10575;50.124;8.582;2023-03-04T06:11:37;55.55;;;20.08;;
20828;SDS011;10575;50.124;8.582;2023-03-04T06:14:02;58.50;;;20.60;;
20828;SDS011;10575;50.124;8.582;2023-03-04T06:16:28;55.40;;;19.85;;
20828;SDS011;10575;50.124;8.582;2023-03-04T06:18:53;58.75;;;20.67;;
20828;SDS011;10575;50.124;8.582;2023-03-04T06:21:19;52.70;;;19.42;;
20828;SDS011;10575;50.124;8.582;2023-03-04T06:23:44;56.05;;;20.25;;
20828;SDS011;10575;50.124;8.582;2023-03-04T06:26:11;50.90;;;19.98;;
20828;SDS011;10575;50.124;8.582;2023-03-04T06:28:39;53.53;;;21.60;;
20828;SDS011;10575;50.124;8.582;2023-03-04T06:31:09;58.50;;;20.95;;
20828;SDS011;10575;50.124;8.582;2023-03-04T06:33:34;55.13;;;20.67;;
20828;SDS011;10575;50.124;8.582;2023-03-04T06:36:00;56.25;;;20.95;;
20828;SDS011;10575;50.124;8.582;2023-03-04T06:38:26;50.38;;;20.13;;
20828;SDS011;10575;50.124;8.582;2023-03-04T06:40:52;53.75;;;19.88;;
20828;SDS011;10575;50.124;8.582;2023-03-04T06:43:18;50.85;;;19.27;;
20828;SDS011;10575;50.124;8.582;2023-03-04T06:45:43;59.33;;;21.08;;
20828;SDS011;10575;50.124;8.582;2023-03-04T06:48:09;58.22;;;21.15;;
20828;SDS011;10575;50.124;8.582;2023-03-04T06:50:35;56.22;;;21.15;;
20828;SDS011;10575;50.124;8.582;2023-03-04T06:53:01;64.57;;;22.20;;
20828;SDS011;10575;50.124;8.582;2023-03-04T06:55:26;63.80;;;21.42;;
20828;SDS011;10575;50.124;8.582;2023-03-04T06:57:52;53.35;;;20.92;;
20828;SDS011;10575;50.124;8.582;2023-03-04T07:00:17;56.00;;;20.60;;
20828;SDS011;10575;50.124;8.582;2023-03-04T07:02:43;60.88;;;21.88;;
20828;SDS011;10575;50.124;8.582;2023-03-04T07:05:09;58.20;;;21.10;;
20828;SDS011;10575;50.124;8.582;2023-03-04T07:07:35;53.13;;;20.67;;
20828;SDS011;10575;50.124;8.582;2023-03-04T07:10:01;53.65;;;20.10;;
20828;SDS011;10575;50.124;8.582;2023-03-04T07:12:27;49.55;;;18.83;;
20828;SDS011;10575;50.124;8.582;2023-03-04T07:14:53;52.25;;;19.77;;
20828;SDS011;10575;50.124;8.582;2023-03-04T07:17:18;48.95;;;20.88;;
20828;SDS011;10575;50.124;8.582;2023-03-04T07:19:44;57.88;;;21.45;;
20828;SDS011;10575;50.124;8.582;2023-03-04T07:22:09;58.28;;;19.90;;
20828;SDS011;10575;50.124;8.582;2023-03-04T07:24:35;52.30;;;20.10;;
20828;SDS011;10575;50.124;8.582;2023-03-04T07:27:01;63.53;;;22.40;;
20828;SDS011;10575;50.124;8.582;2023-03-04T07:29:26;56.35;;;21.30;;
20828;SDS011;10575;50.124;8.582;2023-03-04T07:31:52;55.10;;;21.02;;
20828;SDS011;10575;50.124;8.582;2023-03-04T07:34:17;52.35;;;20.15;;
20828;SDS011;10575;50.124;8.582;2023-03-04T07:36:43;45.67;;;19.13;;
20828;SDS011;10575;50.124;8.582;2023-03-04T07:39:09;59.85;;;22.98;;
20828;SDS011;10575;50.124;8.582;2023-03-04T07:41:36;56.22;;;21.83;;
20828;SDS011;10575;50.124;8.582;2023-03-04T07:44:02;50.20;;;19.27;;
20828;SDS011;10575;50.124;8.582;2023-03-04T07:46:29;53.55;;;22.08;;
20828;SDS011;10575;50.124;8.582;2023-03-04T07:48:55;53.17;;;20.92;;
20828;SDS011;10575;50.124;8.582;2023-03-04T07:51:22;50.55;;;20.30;;
20828;SDS011;10575;50.124;8.582;2023-03-04T07:53:50;52.75;;;21.58;;
20828;SDS011;10575;50.124;8.582;2023-03-04T07:56:19;52.28;;;21.27;;
20828;SDS011;10575;50.124;8.582;2023-03-04T07:58:46;53.92;;;21.52;;
20828;SDS011;10575;50.124;8.582;2023-03-04T08:01:20;58.08;;;21.80;;
20828;SDS011;10575;50.124;8.582;2023-03-04T08:03:47;53.58;;;20.98;;
20828;SDS011;10575;50.124;8.582;2023-03-04T08:06:14;52.17;;;21.85;;
20828;SDS011;10575;50.124;8.582;2023-03-04T08:08:41;49.30;;;21.30;;
20828;SDS011;10575;50.124;8.582;2023-03-04T08:11:08;55.67;;;21.73;;
20828;SDS011;10575;50.124;8.582;2023-03-04T08:13:35;52.35;;;20.80;;
20828;SDS011;10575;50.124;8.582;2023-03-04T08:16:01;56.97;;;23.17;;
20828;SDS011;10575;50.124;8.582;2023-03-04T08:18:27;56.63;;;21.88;;
20828;SDS011;10575;50.124;8.582;2023-03-04T08:20:52;60.72;;;22.70;;
20828;SDS011;10575;50.124;8.582;2023-03-04T08:23:18;53.25;;;21.63;;
20828;SDS011;10575;50.124;8.582;2023-03-04T08:25:45;57.60;;;22.25;;
20828;SDS011;10575;50.124;8.582;2023-03-04T08:28:11;54.78;;;23.15;;
20828;SDS011;10575;50.124;8.582;2023-03-04T08:30:37;59.00;;;23.30;;
20828;SDS011;10575;50.124;8.582;2023-03-04T08:33:04;55.13;;;22.88;;
20828;SDS011;10575;50.124;8.582;2023-03-04T08:35:29;51.22;;;21.88;;
20828;SDS011;10575;50.124;8.582;2023-03-04T08:37:55;56.90;;;22.08;;
20828;SDS011;10575;50.124;8.582;2023-03-04T08:40:21;57.33;;;22.27;;
20828;SDS011;10575;50.124;8.582;2023-03-04T08:42:48;51.78;;;23.08;;
20828;SDS011;10575;50.124;8.582;2023-03-04T08:45:14;53.35;;;21.63;;
20828;SDS011;10575;50.124;8.582;2023-03-04T08:47:39;51.90;;;22.33;;
20828;SDS011;10575;50.124;8.582;2023-03-04T08:50:05;54.47;;;22.75;;
20828;SDS011;10575;50.124;8.582;2023-03-04T08:52:32;55.70;;;22.70;;
20828;SDS011;10575;50.124;8.582;2023-03-04T08:54:57;52.55;;;23.05;;
20828;SDS011;10575;50.124;8.582;2023-03-04T08:57:23;54.90;;;22.83;;
20828;SDS011;10575;50.124;8.582;2023-03-04T08:59:48;52.53;;;22.38;;
20828;SDS011;10575;50.124;8.582;2023-03-04T09:02:14;57.72;;;23.08;;
20828;SDS011;10575;50.124;8.582;2023-03-04T09:04:40;53.80;;;22.40;;
20828;SDS011;10575;50.124;8.582;2023-03-04T09:07:05;50.83;;;24.00;;
20828;SDS011;10575;50.124;8.582;2023-03-04T09:09:32;51.25;;;22.30;;
20828;SDS011;10575;50.124;8.582;2023-03-04T09:11:58;58.60;;;23.90;;
20828;SDS011;10575;50.124;8.582;2023-03-04T09:14:23;58.03;;;22.13;;
20828;SDS011;10575;50.124;8.582;2023-03-04T09:16:49;50.75;;;22.70;;
20828;SDS011;10575;50.124;8.582;2023-03-04T09:19:14;56.13;;;21.92;;
20828;SDS011;10575;50.124;8.582;2023-03-04T09:21:40;51.25;;;21.70;;
20828;SDS011;10575;50.124;8.582;2023-03-04T09:24:06;50.40;;;21.52;;
20828;SDS011;10575;50.124;8.582;2023-03-04T09:26:31;56.85;;;22.80;;
20828;SDS011;10575;50.124;8.582;2023-03-04T09:28:58;58.70;;;23.45;;
20828;SDS011;10575;50.124;8.582;2023-03-04T09:31:27;55.50;;;21.50;;
20828;SDS011;10575;50.124;8.582;2023-03-04T09:33:53;53.00;;;21.95;;
20828;SDS011;10575;50.124;8.582;2023-03-04T09:36:20;51.05;;;21.27;;
20828;SDS011;10575;50.124;8.582;2023-03-04T09:38:46;50.03;;;20.65;;
20828;SDS011;10575;50.124;8.582;2023-03-04T09:41:16;44.30;;;20.25;;
20828;SDS011;10575;50.124;8.582;2023-03-04T09:43:45;42.55;;;17.33;;
20828;SDS011;10575;50.124;8.582;2023-03-04T09:46:17;40.45;;;17.90;;
20828;SDS011;10575;50.124;8.582;2023-03-04T09:48:57;41.80;;;16.77;;
20828;SDS011;10575;50.124;8.582;2023-03-04T09:59:59;41.47;;;16.95;;
20828;SDS011;10575;50.124;8.582;2023-03-04T10:02:38;34.92;;;15.65;;
20828;SDS011;10575;50.124;8.582;2023-03-04T10:05:27;25.00;;;10.20;;
20828;SDS011;10575;50.124;8.582;2023-03-04T10:07:58;27.90;;;12.73;;
20828;SDS011;10575;50.124;8.582;2023-03-04T10:10:35;32.30;;;12.00;;
20828;SDS011;10575;50.124;8.582;2023-03-04T10:13:03;22.95;;;10.15;;
20828;SDS011;10575;50.124;8.582;2023-03-04T10:15:36;33.17;;;11.70;;
20828;SDS011;10575;50.124;8.582;2023-03-04T10:18:11;20.75;;;8.15;;
20828;SDS011;10575;50.124;8.582;2023-03-04T10:23:27;19.83;;;6.88;;
20828;SDS011;10575;50.124;8.582;2023-03-04T10:25:53;22.10;;;7.65;;
20828;SDS011;10575;50.124;8.582;2023-03-04T10:28:23;18.77;;;6.88;;
20828;SDS011;10575;50.124;8.582;2023-03-04T10:33:40;24.38;;;7.90;;
20828;SDS011;10575;50.124;8.582;2023-03-04T10:39:10;29.77;;;6.68;;
20828;SDS011;10575;50.124;8.582;2023-03-04T10:41:40;20.83;;;6.72;;
20828;SDS011;10575;50.124;8.582;2023-03-04T10:46:36;17.50;;;6.57;;
20828;SDS011;10575;50.124;8.582;2023-03-04T10:49:03;24.35;;;6.90;;
20828;SDS011;10575;50.124;8.582;2023-03-04T10:51:29;22.65;;;6.35;;
20828;SDS011;10575;50.124;8.582;2023-03-04T10:54:06;18.42;;;5.72;;
20828;SDS011;10575;50.124;8.582;2023-03-04T10:56:36;17.30;;;7.15;;
20828;SDS011;10575;50.124;8.582;2023-03-04T11:02:01;18.75;;;6.13;;
20828;SDS011;10575;50.124;8.582;2023-03-04T11:07:44;21.23;;;6.50;;
20828;SDS011;10575;50.124;8.582;2023-03-04T11:13:07;19.35;;;6.90;;
20828;SDS011;10575;50.124;8.582;2023-03-04T11:15:47;16.02;;;6.55;;
20828;SDS011;10575;50.124;8.582;2023-03-04T11:18:19;20.17;;;6.75;;
20828;SDS011;10575;50.124;8.582;2023-03-04T11:20:54;15.73;;;6.55;;
20828;SDS011;10575;50.124;8.582;2023-03-04T11:23:25;17.08;;;6.65;;
20828;SDS011;10575;50.124;8.582;2023-03-04T11:26:03;14.68;;;6.22;;
20828;SDS011;10575;50.124;8.582;2023-03-04T11:28:46;16.60;;;6.22;;
20828;SDS011;10575;50.124;8.582;2023-03-04T11:31:30;13.13;;;5.65;;
20828;SDS011;10575;50.124;8.582;2023-03-04T11:34:03;20.73;;;6.72;;
20828;SDS011;10575;50.124;8.582;2023-03-04T11:39:34;17.60;;;6.65;;
20828;SDS011;10575;50.124;8.582;2023-03-04T11:44:34;13.30;;;5.47;;
20828;SDS011;10575;50.124;8.582;2023-03-04T11:47:04;23.90;;;5.40;;
20828;SDS011;10575;50.124;8.582;2023-03-04T11:52:39;11.82;;;4.20;;
20828;SDS011;10575;50.124;8.582;2023-03-04T11:55:31;15.57;;;4.68;;
20828;SDS011;10575;50.124;8.582;2023-03-04T12:00:52;17.40;;;5.90;;
20828;SDS011;10575;50.124;8.582;2023-03-04T12:03:35;19.15;;;6.00;;
20828;SDS011;10575;50.124;8.582;2023-03-04T12:08:41;23.00;;;5.97;;
20828;SDS011;10575;50.124;8.582;2023-03-04T12:11:30;14.45;;;5.10;;
20828;SDS011;10575;50.124;8.582;2023-03-04T12:17:00;18.45;;;4.50;;
20828;SDS011;10575;50.124;8.582;2023-03-04T12:23:07;15.90;;;4.75;;
20828;SDS011;10575;50.124;8.582;2023-03-04T12:28:34;13.75;;;5.20;;
20828;SDS011;10575;50.124;8.582;2023-03-04T12:33:54;11.38;;;4.93;;
20828;SDS011;10575;50.124;8.582;2023-03-04T12:39:02;15.50;;;5.25;;
20828;SDS011;10575;50.124;8.582;2023-03-04T12:44:12;12.02;;;5.03;;
20828;SDS011;10575;50.124;8.582;2023-03-04T12:49:49;13.73;;;5.55;;
20828;SDS011;10575;50.124;8.582;2023-03-04T12:52:30;10.98;;;4.40;;
20828;SDS011;10575;50.124;8.582;2023-03-04T12:55:00;12.85;;;5.60;;
20828;SDS011;10575;50.124;8.582;2023-03-04T12:57:28;17.58;;;5.47;;
20828;SDS011;10575;50.124;8.582;2023-03-04T13:03:20;13.35;;;4.68;;
20828;SDS011;10575;50.124;8.582;2023-03-04T13:08:30;17.98;;;5.20;;
20828;SDS011;10575;50.124;8.582;2023-03-04T13:14:05;10.73;;;5.10;;
20828;SDS011;10575;50.124;8.582;2023-03-04T13:16:52;14.40;;;4.88;;
20828;SDS011;10575;50.124;8.582;2023-03-04T13:24:56;12.32;;;4.43;;
20828;SDS011;10575;50.124;8.582;2023-03-04T13:43:49;8.50;;;3.97;;
20828;SDS011;10575;50.124;8.582;2023-03-04T13:48:42;7.78;;;3.55;;
20828;SDS011;10575;50.124;8.582;2023-03-04T13:51:25;11.60;;;4.05;;
20828;SDS011;10575;50.124;8.582;2023-03-04T13:54:14;12.68;;;4.15;;
20828;SDS011;10575;50.124;8.582;2023-03-04T13:56:46;15.18;;;4.47;;
20828;SDS011;10575;50.124;8.582;2023-03-04T13:59:18;10.00;;;4.15;;
20828;SDS011;10575;50.124;8.582;2023-03-04T14:04:22;11.32;;;4.30;;
20828;SDS011;10575;50.124;8.582;2023-03-04T14:06:51;13.02;;;4.38;;
20828;SDS011;10575;50.124;8.582;2023-03-04T14:09:23;9.90;;;4.43;;
20828;SDS011;10575;50.124;8.582;2023-03-04T14:11:54;14.98;;;5.30;;
20828;SDS011;10575;50.124;8.582;2023-03-04T14:14:25;12.20;;;4.93;;
20828;SDS011;10575;50.124;8.582;2023-03-04T14:16:55;13.38;;;4.75;;
20828;SDS011;10575;50.124;8.582;2023-03-04T14:19:28;12.38;;;5.20;;
20828;SDS011;10575;50.124;8.582;2023-03-04T14:22:24;15.25;;;5.28;;
20828;SDS011;10575;50.124;8.582;2023-03-04T14:27:29;13.65;;;5.20;;
20828;SDS011;10575;50.124;8.582;2023-03-04T14:29:58;11.65;;;5.40;;
20828;SDS011;10575;50.124;8.582;2023-03-04T14:32:25;16.85;;;7.03;;
20828;SDS011;10575;50.124;8.582;2023-03-04T14:35:05;29.77;;;11.63;;
20828;SDS011;10575;50.124;8.582;2023-03-04T14:37:35;46.13;;;17.33;;
20828;SDS011;10575;50.124;8.582;2023-03-04T14:40:21;222.32;;;69.40;;
20828;SDS011;10575;50.124;8.582;2023-03-04T14:42:55;33.72;;;13.15;;
20828;SDS011;10575;50.124;8.582;2023-03-04T14:45:28;35.55;;;14.57;;
20828;SDS011;10575;50.124;8.582;2023-03-04T14:47:56;19.90;;;9.52;;
20828;SDS011;10575;50.124;8.582;2023-03-04T14:50:27;23.27;;;8.77;;
20828;SDS011;10575;50.124;8.582;2023-03-04T14:55:53;16.80;;;5.97;;
20828;SDS011;10575;50.124;8.582;2023-03-04T14:58:27;27.10;;;9.70;;
20828;SDS011;10575;50.124;8.582;2023-03-04T15:01:05;15.43;;;5.82;;
20828;SDS011;10575;50.124;8.582;2023-03-04T15:03:39;19.15;;;7.00;;
20828;SDS011;10575;50.124;8.582;2023-03-04T15:06:18;15.95;;;6.78;;
20828;SDS011;10575;50.124;8.582;2023-03-04T15:08:46;17.13;;;7.28;;
20828;SDS011;10575;50.124;8.582;2023-03-04T15:11:25;14.13;;;5.88;;
20828;SDS011;10575;50.124;8.582;2023-03-04T15:13:57;13.27;;;5.90;;
20828;SDS011;10575;50.124;8.582;2023-03-04T15:16:24;9.93;;;4.25;;
20828;SDS011;10575;50.124;8.582;2023-03-04T15:18:52;12.57;;;4.40;;
20828;SDS011;10575;50.124;8.582;2023-03-04T15:23:44;11.32;;;5.85;;
20828;SDS011;10575;50.124;8.582;2023-03-04T15:26:10;12.13;;;5.57;;
20828;SDS011;10575;50.124;8.582;2023-03-04T15:28:37;6.45;;;3.97;;
20828;SDS011;10575;50.124;8.582;2023-03-04T15:31:04;8.32;;;3.78;;
20828;SDS011;10575;50.124;8.582;2023-03-04T15:33:30;19.40;;;8.00;;
20828;SDS011;10575;50.124;8.582;2023-03-04T15:35:57;13.80;;;4.82;;
20828;SDS011;10575;50.124;8.582;2023-03-04T15:38:25;9.52;;;4.57;;
20828;SDS011;10575;50.124;8.582;2023-03-04T15:40:51;20.73;;;8.68;;
20828;SDS011;10575;50.124;8.582;2023-03-04T15:43:18;12.15;;;4.20;;
20828;SDS011;10575;50.124;8.582;2023-03-04T15:45:45;12.85;;;5.70;;
20828;SDS011;10575;50.124;8.582;2023-03-04T15:48:12;7.13;;;4.10;;
20828;SDS011;10575;50.124;8.582;2023-03-04T15:50:41;15.68;;;7.43;;
20828;SDS011;10575;50.124;8.582;2023-03-04T15:53:12;19.92;;;8.30;;
20828;SDS011;10575;50.124;8.582;2023-03-04T15:55:40;20.25;;;7.00;;
20828;SDS011;10575;50.124;8.582;2023-03-04T15:58:08;15.38;;;6.63;;
20828;SDS011;10575;50.124;8.582;2023-03-04T16:00:35;14.57;;;6.78;;
20828;SDS011;10575;50.124;8.582;2023-03-04T16:03:01;17.55;;;7.72;;
20828;SDS011;10575;50.124;8.582;2023-03-04T16:05:27;13.73;;;6.25;;
20828;SDS011;10575;50.124;8.582;2023-03-04T16:07:52;12.02;;;5.47;;
20828;SDS011;10575;50.124;8.582;2023-03-04T16:12:51;12.60;;;6.40;;
20828;SDS011;10575;50.124;8.582;2023-03-04T16:15:25;11.90;;;5.90;;
20828;SDS011;10575;50.124;8.582;2023-03-04T16:17:52;11.80;;;5.53;;
20828;SDS011;10575;50.124;8.582;2023-03-04T16:20:20;12.32;;;6.13;;
20828;SDS011;10575;50.124;8.582;2023-03-04T16:22:49;14.68;;;7.72;;
20828;SDS011;10575;50.124;8.582;2023-03-04T16:25:18;15.75;;;7.40;;